Time;durP1;ratioP1;P1;durP2;ratioP2;P2;SDS_P1;SDS_P2;PMS_P1;PMS_P2;Temp;Humidity;BMP_temperature;BMP_pressure;BME280_temperature;BME280_humidity;BME280_pressure;Samples;Min_cycle;Max_cycle;Signal;HPM_P1;HPM_P2
2023/10/18 00:02:45;;;;;;;33.58;28.25;;;5.50;99.90;;;;;;5022967;28;20083;-81
2023/10/18 00:05:33;;;;;;;34.08;29.02;;;5.50;99.90;;;;;;5036549;28;20045;-81
2023/10/18 00:08:03;;;;;;;32.97;29.42;;;5.50;99.90;;;;;;5015785;28;20499;-80
2023/10/18 00:10:33;;;;;;;34.90;29.15;;;5.50;99.90;;;;;;5015382;28;20116;-81
2023/10/18 00:13:01;;;;;;;32.58;28.98;;;5.40;99.90;;;;;;5023454;28;20069;-81
2023/10/18 00:15:36;;;;;;;35.28;30.15;;;5.40;99.90;;;;;;5046908;28;20075;-81
2023/10/18 00:18:04;;;;;;;34.25;29.98;;;5.40;99.90;;;;;;5034715;28;20041;-80
2023/10/18 00:20:30;;;;;;;33.58;29.65;;;5.40;99.90;;;;;;5031309;28;20132;-81
2023/10/18 00:22:59;;;;;;;34.92;31.23;;;5.30;99.90;;;;;;5015036;28;20495;-80
2023/10/18 00:25:32;;;;;;;35.17;31.20;;;5.30;99.90;;;;;;5032261;28;20073;-80
2023/10/18 00:27:58;;;;;;;36.22;31.88;;;5.30;99.90;;;;;;5036195;28;20041;-80
2023/10/18 00:30:27;;;;;;;36.88;32.65;;;5.30;99.90;;;;;;5030856;28;20092;-80
2023/10/18 00:33:06;;;;;;;38.72;33.10;;;5.30;99.90;;;;;;5017862;28;20268;-80
2023/10/18 00:35:36;;;;;;;36.90;32.90;;;5.30;99.90;;;;;;5014058;28;20492;-80
2023/10/18 00:38:03;;;;;;;38.03;33.92;;;5.30;99.90;;;;;;5014602;28;20033;-80
2023/10/18 00:40:35;;;;;;;40.72;33.47;;;5.30;99.90;;;;;;5025756;28;20056;-80
2023/10/18 00:43:22;;;;;;;38.60;34.03;;;5.20;99.90;;;;;;5014958;28;20120;-80
2023/10/18 00:45:52;;;;;;;40.10;35.80;;;5.30;99.90;;;;;;5031218;28;20581;-80
2023/10/18 00:48:20;;;;;;;42.17;35.28;;;5.10;99.90;;;;;;5014432;28;20033;-80
2023/10/18 00:50:48;;;;;;;42.10;36.55;;;5.20;99.90;;;;;;5018144;28;20041;-80
2023/10/18 00:53:22;;;;;;;43.17;36.80;;;5.20;99.90;;;;;;5042708;28;20076;-80
2023/10/18 00:55:57;;;;;;;42.38;37.78;;;5.20;99.90;;;;;;5034349;28;20040;-81
2023/10/18 00:58:31;;;;;;;45.23;39.17;;;5.10;99.90;;;;;;5011791;28;20041;-80
2023/10/18 01:00:58;;;;;;;44.88;38.22;;;5.20;99.90;;;;;;5030787;28;20327;-80
2023/10/18 01:03:36;;;;;;;45.55;38.85;;;5.20;99.90;;;;;;5014215;28;20044;-81
2023/10/18 01:06:08;;;;;;;46.25;40.72;;;5.20;99.90;;;;;;5013339;28;20535;-81
2023/10/18 01:08:37;;;;;;;48.67;41.22;;;5.20;99.90;;;;;;5014781;28;20041;-80
2023/10/18 01:11:07;;;;;;;50.10;42.72;;;5.20;99.90;;;;;;5020013;28;20099;-81
2023/10/18 01:13:36;;;;;;;47.30;41.70;;;5.20;99.90;;;;;;5017834;28;20132;-81
2023/10/18 01:16:09;;;;;;;48.33;42.78;;;5.20;99.90;;;;;;5019331;28;20081;-80
2023/10/18 01:18:35;;;;;;;48.03;42.65;;;5.20;99.90;;;;;;4995169;28;20080;-81
2023/10/18 01:21:14;;;;;;;51.22;43.55;;;5.20;99.90;;;;;;5007046;28;20077;-80
2023/10/18 01:23:49;;;;;;;50.70;44.60;;;5.20;99.90;;;;;;5014466;28;20499;-80
2023/10/18 01:26:15;;;;;;;53.22;44.95;;;5.20;99.90;;;;;;5013832;28;20581;-81
2023/10/18 01:28:41;;;;;;;52.05;45.08;;;5.20;99.90;;;;;;5030679;28;20033;-80
2023/10/18 01:31:07;;;;;;;52.58;45.42;;;5.20;99.90;;;;;;5012638;28;20037;-80
2023/10/18 01:33:42;;;;;;;51.47;45.28;;;5.30;99.90;;;;;;5024473;28;20044;-80
2023/10/18 01:36:23;;;;;;;55.35;47.13;;;5.20;99.90;;;;;;5032772;28;20127;-80
2023/10/18 01:38:56;;;;;;;56.63;48.42;;;5.20;99.90;;;;;;5005993;28;20041;-80
2023/10/18 01:41:38;;;;;;;59.42;48.35;;;5.20;99.90;;;;;;5038569;28;20507;-81
2023/10/18 01:44:08;;;;;;;57.20;48.05;;;5.20;99.90;;;;;;5019804;28;20092;-80
2023/10/18 01:46:45;;;;;;;57.55;48.72;;;5.30;99.90;;;;;;5013413;28;20042;-80
2023/10/18 01:49:16;;;;;;;56.53;46.88;;;5.30;99.90;;;;;;5014030;28;20033;-79
2023/10/18 01:51:51;;;;;;;53.72;46.35;;;5.30;99.90;;;;;;5013524;28;20377;-80
2023/10/18 01:54:26;;;;;;;56.38;48.80;;;5.30;99.90;;;;;;5014142;28;20095;-81
2023/10/18 01:57:00;;;;;;;56.22;47.42;;;5.30;99.90;;;;;;5019585;28;20038;-80
2023/10/18 01:59:48;;;;;;;58.63;48.08;;;5.40;99.90;;;;;;5038486;28;20111;-81
2023/10/18 02:06:31;;;;;;;55.92;48.47;;;5.40;99.90;;;;;;5016550;28;20037;-81
2023/10/18 02:08:57;;;;;;;58.58;49.58;;;5.40;99.90;;;;;;4951342;28;20040;-80
2023/10/18 02:11:25;;;;;;;54.22;47.40;;;5.40;99.90;;;;;;4965099;28;20133;-80
2023/10/18 02:13:51;;;;;;;56.10;47.47;;;5.40;99.90;;;;;;5000626;28;20045;-80
2023/10/18 02:16:19;;;;;;;56.70;48.63;;;5.40;99.90;;;;;;5005508;28;20041;-80
2023/10/18 02:18:48;;;;;;;55.25;48.33;;;5.40;99.90;;;;;;5021923;28;20053;-80
2023/10/18 02:21:16;;;;;;;54.30;47.90;;;5.40;99.90;;;;;;5013476;28;20076;-80
2023/10/18 02:23:42;;;;;;;57.17;47.47;;;5.40;99.90;;;;;;5011618;28;20509;-80
2023/10/18 02:26:30;;;;;;;57.10;48.53;;;5.50;99.90;;;;;;5012908;28;20037;-80
2023/10/18 02:29:12;;;;;;;60.03;49.47;;;5.40;99.90;;;;;;5012518;28;20099;-80
2023/10/18 02:31:40;;;;;;;57.70;48.92;;;5.40;99.90;;;;;;5024510;28;20033;-80
2023/10/18 02:34:14;;;;;;;60.53;50.95;;;5.50;99.90;;;;;;5035918;28;20476;-81
2023/10/18 02:39:42;;;;;;;56.45;49.40;;;5.40;99.90;;;;;;5029591;28;20084;-81
2023/10/18 02:42:20;;;;;;;60.55;49.47;;;5.30;99.90;;;;;;5020588;28;20128;-80
2023/10/18 02:44:56;;;;;;;59.72;51.63;;;5.40;99.90;;;;;;5027266;28;20045;-81
2023/10/18 02:47:29;;;;;;;59.28;50.50;;;5.30;99.90;;;;;;5009620;28;20127;-81
2023/10/18 02:49:55;;;;;;;61.80;52.30;;;5.40;99.90;;;;;;5029711;28;20155;-80
2023/10/18 02:52:21;;;;;;;61.97;51.90;;;5.30;99.90;;;;;;5014046;28;20136;-80
2023/10/18 02:54:49;;;;;;;61.25;51.63;;;5.30;99.90;;;;;;5016746;28;20037;-80
2023/10/18 02:57:15;;;;;;;58.13;51.35;;;5.30;99.90;;;;;;5016516;28;20361;-80
2023/10/18 02:59:43;;;;;;;58.90;50.95;;;5.30;99.90;;;;;;5025035;28;20029;-80
2023/10/18 03:02:15;;;;;;;59.22;51.53;;;5.40;99.90;;;;;;5020341;28;20123;-80
2023/10/18 03:04:43;;;;;;;63.65;51.97;;;5.30;99.90;;;;;;5016190;28;20037;-80
2023/10/18 03:07:13;;;;;;;61.00;52.00;;;5.30;99.90;;;;;;5016385;28;20033;-81
2023/10/18 03:09:49;;;;;;;59.97;52.63;;;5.30;99.90;;;;;;5016770;28;20045;-80
2023/10/18 03:12:24;;;;;;;64.30;53.38;;;5.30;99.90;;;;;;5033627;28;20047;-80
2023/10/18 03:17:56;;;;;;;65.63;55.08;;;5.20;99.90;;;;;;5025880;28;20049;-81
2023/10/18 03:20:26;;;;;;;63.13;55.30;;;5.20;99.90;;;;;;5024676;28;20047;-80
2023/10/18 03:23:02;;;;;;;;;;;5.20;99.90;;;;;;5017540;28;20449;-81
2023/10/18 03:25:31;;;;;;;66.03;54.42;;;5.10;99.90;;;;;;5011977;28;19968;-80
2023/10/18 03:28:36;;;;;;;62.55;53.38;;;5.20;99.90;;;;;;5032139;28;20037;-80
2023/10/18 03:31:20;;;;;;;64.43;54.53;;;5.10;99.90;;;;;;5021864;28;20048;-81
2023/10/18 03:33:59;;;;;;;64.20;54.00;;;5.20;99.90;;;;;;5025548;28;20041;-80
2023/10/18 03:36:32;;;;;;;64.65;53.60;;;5.20;99.90;;;;;;5014574;28;20053;-80
2023/10/18 03:39:07;;;;;;;63.22;52.55;;;5.20;99.90;;;;;;5015598;28;20397;-80
2023/10/18 03:41:40;;;;;;;62.50;53.38;;;5.20;99.90;;;;;;5014767;28;20037;-80
2023/10/18 03:44:20;;;;;;;61.20;53.92;;;5.20;99.90;;;;;;5028213;28;20441;-80
2023/10/18 03:47:24;;;;;;;64.00;52.80;;;5.30;99.90;;;;;;5012464;28;20128;-79
2023/10/18 03:50:00;;;;;;;65.20;54.88;;;5.20;99.90;;;;;;5037309;28;20112;-80
2023/10/18 03:52:27;;;;;;;58.33;51.80;;;5.20;99.90;;;;;;5027686;28;20091;-80
2023/10/18 03:55:13;;;;;;;59.78;52.13;;;5.20;99.90;;;;;;5034229;28;20069;-80
2023/10/18 03:57:54;;;;;;;61.45;53.28;;;5.30;99.90;;;;;;5015900;28;20411;-80
2023/10/18 04:00:39;;;;;;;59.13;52.60;;;5.30;99.90;;;;;;5015604;28;20095;-81
2023/10/18 04:03:15;;;;;;;57.72;50.38;;;5.30;99.90;;;;;;5012286;28;20061;-80
2023/10/18 04:06:20;;;;;;;58.55;51.72;;;5.30;99.90;;;;;;5031270;28;20041;-80
2023/10/18 04:08:52;;;;;;;60.05;52.90;;;5.30;99.90;;;;;;4996775;28;20504;-81
2023/10/18 04:11:24;;;;;;;57.97;50.70;;;5.20;99.90;;;;;;5037964;28;20041;-80
2023/10/18 04:13:51;;;;;;;62.97;53.72;;;5.30;99.90;;;;;;5015546;28;20033;-80
2023/10/18 04:16:28;;;;;;;58.38;51.95;;;5.30;99.90;;;;;;5031354;28;20041;-80
2023/10/18 04:19:07;;;;;;;58.78;51.53;;;5.30;99.90;;;;;;5016831;28;20064;-80
2023/10/18 04:21:34;;;;;;;62.65;52.40;;;5.20;99.90;;;;;;5025416;28;20499;-80
2023/10/18 04:24:04;;;;;;;58.97;51.05;;;5.20;99.90;;;;;;5035332;28;20087;-81
2023/10/18 04:26:30;;;;;;;57.30;50.72;;;5.20;99.90;;;;;;5021466;28;20048;-80
2023/10/18 04:29:26;;;;;;;57.50;51.22;;;5.20;99.90;;;;;;5015679;28;20052;-80
2023/10/18 04:31:52;;;;;;;;;;;5.20;99.90;;;;;;5043802;28;20125;-81
2023/10/18 04:34:21;;;;;;;60.70;52.25;;;5.20;99.90;;;;;;5017493;28;20330;-80
2023/10/18 04:36:51;;;;;;;58.45;51.47;;;5.20;99.90;;;;;;5014917;28;20075;-80
2023/10/18 04:39:20;;;;;;;58.42;51.92;;;5.20;99.90;;;;;;5014227;28;20044;-79
2023/10/18 04:41:49;;;;;;;57.22;50.85;;;5.20;99.90;;;;;;5014941;28;20041;-80
2023/10/18 04:44:21;;;;;;;58.53;51.78;;;5.20;99.90;;;;;;5014784;28;20407;-80
2023/10/18 04:46:52;;;;;;;57.42;51.13;;;5.10;99.90;;;;;;5030742;28;20033;-80
2023/10/18 04:52:20;;;;;;;59.45;52.95;;;5.10;99.90;;;;;;5034434;28;20073;-80
2023/10/18 04:54:59;;;;;;;57.95;51.70;;;5.20;99.90;;;;;;5014761;28;20373;-80
2023/10/18 04:57:25;;;;;;;57.95;51.75;;;5.20;99.90;;;;;;5013820;28;20041;-80
2023/10/18 05:00:09;;;;;;;55.08;48.17;;;5.20;99.90;;;;;;5014820;28;20041;-80
2023/10/18 05:02:46;;;;;;;57.20;51.00;;;5.20;99.90;;;;;;5014679;28;20045;-80
2023/10/18 05:05:14;;;;;;;54.55;48.72;;;5.20;99.90;;;;;;5029739;28;20076;-79
2023/10/18 05:07:42;;;;;;;56.72;50.70;;;5.20;99.90;;;;;;5013804;28;20037;-80
2023/10/18 05:10:14;;;;;;;53.50;47.78;;;5.20;99.90;;;;;;5024598;28;20064;-79
2023/10/18 05:12:53;;;;;;;54.83;49.05;;;5.20;99.90;;;;;;5014044;28;20065;-80
2023/10/18 05:15:29;;;;;;;54.47;48.70;;;5.20;99.90;;;;;;5013938;28;20042;-80
2023/10/18 05:18:15;;;;;;;54.55;48.75;;;5.20;99.90;;;;;;5031054;28;20127;-79
2023/10/18 05:20:47;;;;;;;55.50;49.70;;;5.20;99.90;;;;;;5017265;28;20403;-80
2023/10/18 05:23:25;;;;;;;58.15;51.95;;;5.20;99.90;;;;;;5018635;28;20044;-80
2023/10/18 05:26:08;;;;;;;59.85;52.63;;;5.20;99.90;;;;;;5029743;28;20044;-80
2023/10/18 05:28:47;;;;;;;;;;;5.20;99.90;;;;;;5015055;28;20481;-80
2023/10/18 05:34:18;;;;;;;57.17;51.10;;;5.20;99.90;;;;;;5028154;28;20120;-80
2023/10/18 05:39:27;;;;;;;55.40;49.60;;;5.20;99.90;;;;;;5030740;28;20514;-80
2023/10/18 05:42:00;;;;;;;53.35;47.75;;;5.20;99.90;;;;;;5016911;28;20041;-80
2023/10/18 05:44:29;;;;;;;54.67;48.95;;;5.20;99.90;;;;;;5040311;28;20519;-80
2023/10/18 05:46:54;;;;;;;55.83;50.05;;;5.20;99.90;;;;;;5013273;28;20153;-80
2023/10/18 05:49:23;;;;;;;54.78;49.25;;;5.20;99.90;;;;;;5012927;28;20045;-80
2023/10/18 05:54:34;;;;;;;53.38;47.97;;;5.20;99.90;;;;;;5032091;28;20443;-81
2023/10/18 05:57:00;;;;;;;53.63;48.08;;;5.20;99.90;;;;;;5029515;28;20458;-80
2023/10/18 05:59:31;;;;;;;54.95;49.35;;;5.20;99.90;;;;;;5013955;28;20132;-79
2023/10/18 06:01:58;;;;;;;51.22;45.90;;;5.20;99.90;;;;;;5011805;28;20443;-80
2023/10/18 06:04:24;;;;;;;52.92;47.72;;;5.20;99.90;;;;;;5019581;28;20048;-79
2023/10/18 06:06:51;;;;;;;52.30;47.20;;;5.20;99.90;;;;;;5012634;28;20041;-80
2023/10/18 06:09:45;;;;;;;50.60;45.63;;;5.20;99.90;;;;;;5030448;28;20041;-79
2023/10/18 06:12:13;;;;;;;51.00;45.88;;;5.20;99.90;;;;;;5025230;28;20094;-80
2023/10/18 06:14:44;;;;;;;51.30;46.20;;;5.20;99.90;;;;;;5037473;28;20120;-80
2023/10/18 06:17:19;;;;;;;49.35;44.42;;;5.20;99.90;;;;;;5030381;28;20041;-80
2023/10/18 06:19:45;;;;;;;51.10;46.03;;;5.20;99.90;;;;;;4994458;28;20041;-80
2023/10/18 06:22:38;;;;;;;50.00;45.00;;;5.20;99.90;;;;;;5006973;28;20033;-80
2023/10/18 06:25:09;;;;;;;50.60;45.53;;;5.20;99.90;;;;;;5015733;28;20073;-80
2023/10/18 06:27:41;;;;;;;50.10;45.22;;;5.20;99.90;;;;;;5038670;28;20037;-80
2023/10/18 06:30:14;;;;;;;48.83;44.20;;;5.20;99.90;;;;;;5034352;28;20046;-79
2023/10/18 06:32:41;;;;;;;51.53;46.53;;;5.20;99.90;;;;;;5033638;28;20033;-80
2023/10/18 06:35:10;;;;;;;49.78;44.78;;;5.20;99.90;;;;;;5041984;28;20091;-80
2023/10/18 06:37:41;;;;;;;51.15;46.03;;;5.20;99.90;;;;;;5052954;28;20045;-80
2023/10/18 06:40:40;;;;;;;49.38;44.53;;;5.20;99.90;;;;;;5037591;28;20037;-80
2023/10/18 06:43:12;;;;;;;48.72;44.03;;;5.20;99.90;;;;;;5037154;28;20049;-80
2023/10/18 06:48:14;;;;;;;49.33;44.55;;;5.20;99.90;;;;;;5052807;28;20041;-80
2023/10/18 06:50:46;;;;;;;47.53;42.92;;;5.20;99.90;;;;;;5053492;28;20051;-80
2023/10/18 06:53:18;;;;;;;45.22;40.83;;;5.30;99.90;;;;;;5053092;28;20033;-80
2023/10/18 06:55:59;;;;;;;44.83;40.50;;;5.30;99.90;;;;;;5053638;28;20033;-81
2023/10/18 07:01:30;;;;;;;45.70;41.30;;;5.40;99.90;;;;;;5054399;28;20384;-80
2023/10/18 07:04:04;;;;;;;45.08;40.72;;;5.40;99.90;;;;;;5030462;28;20391;-80
2023/10/18 07:06:49;;;;;;;46.33;41.90;;;5.40;99.90;;;;;;5052382;28;20033;-80
2023/10/18 07:09:31;;;;;;;42.35;38.35;;;5.50;99.90;;;;;;5036673;28;20041;-79
2023/10/18 07:11:57;;;;;;;45.33;41.05;;;5.50;99.90;;;;;;5051451;28;20053;-80
2023/10/18 07:14:24;;;;;;;44.80;40.42;;;5.50;99.90;;;;;;5050582;28;20045;-80
2023/10/18 07:16:54;;;;;;;47.30;42.95;;;5.60;99.90;;;;;;5052530;28;20044;-80
2023/10/18 07:19:27;;;;;;;42.47;38.42;;;5.60;99.90;;;;;;5052103;28;20073;-80
2023/10/18 07:21:57;;;;;;;42.17;38.35;;;5.60;99.90;;;;;;5052277;28;20040;-80
2023/10/18 07:24:32;;;;;;;40.83;36.83;;;5.70;99.90;;;;;;5052669;28;20033;-80
2023/10/18 07:26:59;;;;;;;40.30;36.53;;;5.70;99.90;;;;;;5052699;28;20083;-80
2023/10/18 07:29:27;;;;;;;41.60;37.60;;;5.80;99.90;;;;;;5053143;28;20041;-80
2023/10/18 07:31:53;;;;;;;42.45;38.38;;;5.80;99.90;;;;;;5051820;28;20064;-80
2023/10/18 07:34:28;;;;;;;38.85;35.28;;;5.80;99.90;;;;;;5052311;28;20037;-80
2023/10/18 07:36:54;;;;;;;40.13;36.50;;;5.90;99.90;;;;;;5052634;28;20566;-79
2023/10/18 07:39:24;;;;;;;40.85;36.95;;;5.90;99.90;;;;;;5052743;28;20033;-80
2023/10/18 07:41:51;;;;;;;37.20;33.70;;;5.90;99.90;;;;;;5050879;28;20044;-79
2023/10/18 07:44:16;;;;;;;35.78;32.38;;;6.00;99.90;;;;;;5051719;28;20084;-82
2023/10/18 07:46:42;;;;;;;37.05;33.60;;;6.00;99.90;;;;;;5047077;28;20471;-81
2023/10/18 07:49:14;;;;;;;38.83;35.10;;;6.10;99.90;;;;;;5055997;28;20076;-81
2023/10/18 07:51:48;;;;;;;38.30;34.78;;;6.10;99.90;;;;;;5053073;28;20041;-81
2023/10/18 07:54:17;;;;;;;37.75;34.25;;;6.10;99.90;;;;;;5039739;28;20534;-81
2023/10/18 07:56:50;;;;;;;35.80;32.65;;;6.20;99.90;;;;;;5055323;28;20048;-81
2023/10/18 07:59:32;;;;;;;34.58;31.48;;;6.20;99.90;;;;;;5072652;28;20043;-80
2023/10/18 08:04:44;;;;;;;35.03;31.83;;;6.40;99.90;;;;;;5046560;28;20445;-81
2023/10/18 08:07:15;;;;;;;32.35;29.25;;;6.40;99.90;;;;;;5034874;28;20098;-81
2023/10/18 08:09:41;;;;;;;32.83;29.73;;;6.50;99.90;;;;;;5034804;28;20094;-81
2023/10/18 08:12:09;;;;;;;33.00;30.00;;;6.50;99.90;;;;;;5043159;28;20064;-81
2023/10/18 08:14:35;;;;;;;32.05;29.30;;;6.60;99.90;;;;;;5037171;28;20510;-80
2023/10/18 08:17:29;;;;;;;31.17;28.17;;;6.60;99.90;;;;;;5041179;28;20045;-81
2023/10/18 08:22:39;;;;;;;31.23;28.42;;;6.80;99.90;;;;;;5050399;28;20041;-81
2023/10/18 08:25:06;;;;;;;30.88;28.13;;;6.80;99.90;;;;;;5029561;28;20041;-81
2023/10/18 08:27:32;;;;;;;31.08;28.15;;;6.90;99.90;;;;;;5034524;28;20133;-81
2023/10/18 08:30:07;;;;;;;28.45;25.77;;;6.90;99.90;;;;;;5032536;28;20120;-81
2023/10/18 08:32:32;;;;;;;27.27;24.73;;;7.00;99.90;;;;;;5035261;28;20037;-81
2023/10/18 08:35:06;;;;;;;27.80;25.30;;;7.10;99.90;;;;;;5035171;28;20037;-80
2023/10/18 08:37:32;;;;;;;28.90;26.20;;;7.10;99.90;;;;;;5035090;28;20070;-79
2023/10/18 08:39:58;;;;;;;28.00;25.50;;;7.20;99.90;;;;;;5035158;28;20105;-79
2023/10/18 08:42:39;;;;;;;27.73;25.30;;;7.20;99.90;;;;;;5059911;28;20140;-79
2023/10/18 08:45:09;;;;;;;27.83;25.33;;;7.30;99.90;;;;;;5050196;28;20111;-80
2023/10/18 08:47:39;;;;;;;26.95;24.30;;;7.40;99.90;;;;;;5034951;28;20434;-79
2023/10/18 08:50:08;;;;;;;26.75;24.40;;;7.50;99.90;;;;;;5049011;28;20033;-80
2023/10/18 08:52:39;;;;;;;26.65;24.33;;;7.50;99.90;;;;;;5034829;28;20062;-79
2023/10/18 08:57:55;;;;;;;24.73;22.50;;;7.70;99.90;;;;;;5058475;28;20041;-80
2023/10/18 09:02:51;;;;;;;23.65;21.60;;;7.90;99.90;;;;;;5055919;28;20036;-79
2023/10/18 09:05:25;;;;;;;23.15;21.05;;;8.00;99.90;;;;;;5051707;28;20041;-79
2023/10/18 09:07:59;;;;;;;23.58;21.48;;;8.10;99.90;;;;;;5050345;28;20052;-79
2023/10/18 09:15:50;;;;;;;22.17;20.05;;;8.20;99.90;;;;;;5048084;28;20082;-79
2023/10/18 09:18:16;;;;;;;22.95;20.85;;;8.30;99.90;;;;;;5054489;28;20036;-80
2023/10/18 09:20:42;;;;;;;21.80;19.90;;;8.40;99.90;;;;;;5042826;28;20083;-79
2023/10/18 09:23:20;;;;;;;21.35;19.30;;;8.50;99.90;;;;;;5050615;28;20037;-79
2023/10/18 09:25:50;;;;;;;21.80;19.90;;;8.60;99.90;;;;;;5022229;28;20084;-79
2023/10/18 09:28:30;;;;;;;20.17;18.23;;;8.60;99.90;;;;;;5060532;28;20048;-80
2023/10/18 09:31:01;;;;;;;21.83;20.02;;;8.70;99.90;;;;;;5045377;28;20033;-80
2023/10/18 09:33:33;;;;;;;20.70;18.90;;;8.60;99.90;;;;;;5051635;28;20059;-79
2023/10/18 09:36:01;;;;;;;19.90;18.07;;;8.70;99.90;;;;;;5038611;28;20079;-80
2023/10/18 09:38:39;;;;;;;20.05;18.25;;;8.70;99.90;;;;;;5029276;28;20426;-80
2023/10/18 09:41:06;;;;;;;21.83;19.92;;;8.80;99.90;;;;;;5045376;28;20519;-79
2023/10/18 09:43:38;;;;;;;19.55;17.90;;;8.80;99.90;;;;;;5050414;28;20489;-79
2023/10/18 09:46:04;;;;;;;19.92;18.20;;;8.80;99.90;;;;;;5047438;28;20036;-80
2023/10/18 09:48:32;;;;;;;19.45;17.75;;;8.90;99.90;;;;;;5032944;28;20041;-79
2023/10/18 09:51:06;;;;;;;19.40;17.52;;;9.00;99.90;;;;;;5055999;28;20440;-80
2023/10/18 09:53:36;;;;;;;18.98;17.38;;;9.00;99.90;;;;;;5066269;28;20329;-80
2023/10/18 09:56:02;;;;;;;19.33;17.55;;;9.00;99.90;;;;;;5050685;28;20048;-80
2023/10/18 09:58:33;;;;;;;19.45;17.60;;;9.10;99.90;;;;;;5032721;28;20045;-80
2023/10/18 10:01:13;;;;;;;19.05;17.35;;;9.20;99.90;;;;;;5032729;28;20064;-80
2023/10/18 10:03:50;;;;;;;19.55;17.75;;;9.20;99.90;;;;;;5048051;28;20075;-80
2023/10/18 10:06:18;;;;;;;20.00;18.33;;;9.30;99.90;;;;;;5036142;28;20045;-80
2023/10/18 10:08:47;;;;;;;19.70;18.00;;;9.30;99.90;;;;;;5046046;28;20504;-80
2023/10/18 10:11:18;;;;;;;19.67;17.77;;;9.30;99.90;;;;;;5052046;28;20064;-80
2023/10/18 10:13:45;;;;;;;18.63;16.73;;;9.40;99.90;;;;;;5054151;28;20041;-80
2023/10/18 10:16:13;;;;;;;18.48;16.95;;;9.50;99.90;;;;;;5037249;28;20049;-84
2023/10/18 10:18:43;;;;;;;19.30;17.70;;;9.50;99.90;;;;;;5037819;28;20124;-82
2023/10/18 10:21:12;;;;;;;18.30;16.60;;;9.60;99.90;;;;;;5038125;28;20153;-81
2023/10/18 10:23:41;;;;;;;18.55;16.85;;;9.70;99.90;;;;;;5052041;28;20072;-82
2023/10/18 10:26:11;;;;;;;18.65;17.05;;;9.70;99.90;;;;;;5036596;28;20475;-80
2023/10/18 10:31:51;;;;;;;17.33;15.82;;;9.80;99.90;;;;;;5051915;28;20063;-79
2023/10/18 10:34:26;;;;;;;18.58;16.90;;;9.90;99.90;;;;;;5062035;28;20091;-79
2023/10/18 10:37:12;;;;;;;18.13;16.52;;;10.00;99.90;;;;;;5046667;28;20052;-79
2023/10/18 10:39:45;;;;;;;19.70;16.42;;;10.10;99.90;;;;;;5051063;28;21142;-79
2023/10/18 10:42:41;;;;;;;18.27;16.67;;;10.20;99.90;;;;;;5049534;28;20045;-79
2023/10/18 10:47:46;;;;;;;17.77;16.27;;;10.30;99.90;;;;;;5033888;28;20068;-80
2023/10/18 10:50:42;;;;;;;16.95;15.45;;;10.30;99.90;;;;;;5045344;28;20617;-79
2023/10/18 10:53:11;;;;;;;17.75;16.25;;;10.40;99.90;;;;;;5048730;28;20041;-79
2023/10/18 10:55:38;;;;;;;17.58;15.98;;;10.30;99.90;;;;;;5053576;28;20045;-79
2023/10/18 10:58:16;;;;;;;16.35;14.85;;;10.40;99.90;;;;;;5036849;28;20483;-80
2023/10/18 11:01:05;;;;;;;17.05;15.52;;;10.40;99.90;;;;;;5033859;28;20074;-80
2023/10/18 11:03:48;;;;;;;16.30;14.68;;;10.40;99.90;;;;;;5063524;28;20079;-80
2023/10/18 11:06:24;;;;;;;18.05;16.45;;;10.30;99.90;;;;;;5061890;28;20120;-80
2023/10/18 11:08:53;;;;;;;15.35;13.95;;;10.40;99.90;;;;;;5044965;28;20041;-80
2023/10/18 11:11:26;;;;;;;16.25;14.73;;;10.50;99.90;;;;;;5035843;28;20499;-80
2023/10/18 11:13:52;;;;;;;16.98;15.55;;;10.50;99.90;;;;;;5048659;28;20116;-80
2023/10/18 11:16:20;;;;;;;16.45;15.00;;;10.50;99.90;;;;;;5047985;28;20052;-79
2023/10/18 11:18:52;;;;;;;16.10;14.70;;;10.60;99.90;;;;;;5053079;28;20051;-82
2023/10/18 11:21:21;;;;;;;16.95;15.48;;;10.70;99.90;;;;;;5053047;28;20044;-83
2023/10/18 11:23:51;;;;;;;16.02;14.60;;;10.80;99.90;;;;;;5052854;28;20045;-81
2023/10/18 11:26:20;;;;;;;15.07;13.68;;;10.80;99.90;;;;;;5060103;28;20090;-81
2023/10/18 11:28:46;;;;;;;15.77;14.18;;;10.90;99.90;;;;;;5051896;28;20045;-81
2023/10/18 11:31:13;;;;;;;15.20;13.82;;;11.00;99.90;;;;;;5060877;28;20041;-81
2023/10/18 11:33:47;;;;;;;15.40;14.13;;;11.10;99.90;;;;;;5062625;28;20465;-82
2023/10/18 11:36:19;;;;;;;15.32;14.10;;;11.20;99.90;;;;;;5051417;28;20040;-82
2023/10/18 11:41:36;;;;;;;15.27;13.95;;;11.30;99.90;;;;;;5052452;28;20128;-82
2023/10/18 11:44:16;;;;;;;15.02;13.68;;;11.40;99.90;;;;;;5035567;28;20407;-81
2023/10/18 11:46:56;;;;;;;15.10;13.77;;;11.40;99.90;;;;;;5059676;28;20032;-81
2023/10/18 11:49:32;;;;;;;14.45;13.15;;;11.50;99.90;;;;;;5047852;28;20049;-79
2023/10/18 11:51:58;;;;;;;14.50;13.23;;;11.60;99.90;;;;;;5039691;28;20047;-79
2023/10/18 11:54:34;;;;;;;15.65;14.30;;;11.70;99.90;;;;;;5036696;28;20033;-80
2023/10/18 11:57:02;;;;;;;16.17;14.77;;;11.70;99.90;;;;;;5049021;28;20123;-82
2023/10/18 11:59:28;;;;;;;14.27;13.02;;;11.80;99.90;;;;;;5018913;28;20530;-80
2023/10/18 12:01:59;;;;;;;14.75;13.45;;;11.90;99.90;;;;;;5052488;28;20055;-79
2023/10/18 12:04:28;;;;;;;15.13;13.63;;;12.10;99.90;;;;;;5050789;28;20044;-79
2023/10/18 12:06:56;;;;;;;14.77;13.05;;;12.20;99.90;;;;;;5053495;28;20111;-80
2023/10/18 12:11:54;;;;;;;14.32;13.02;;;12.20;99.90;;;;;;5060509;28;20048;-80
2023/10/18 12:14:22;;;;;;;13.38;12.27;;;12.20;99.90;;;;;;5051616;28;20033;-82
2023/10/18 12:16:49;;;;;;;14.75;13.30;;;12.30;99.90;;;;;;5034428;28;20423;-80
2023/10/18 12:19:15;;;;;;;14.30;12.95;;;12.20;99.90;;;;;;5051530;28;20037;-80
2023/10/18 12:21:48;;;;;;;14.05;12.85;;;12.20;99.90;;;;;;5034963;28;20545;-84
2023/10/18 12:24:15;;;;;;;13.30;12.10;;;12.20;99.90;;;;;;5049685;28;20047;-81
2023/10/18 12:26:41;;;;;;;14.27;12.98;;;12.20;99.90;;;;;;5050399;28;20418;-80
2023/10/18 12:29:06;;;;;;;13.75;12.45;;;12.20;99.90;;;;;;5051469;28;20037;-79
2023/10/18 12:31:39;;;;;;;14.38;12.90;;;12.20;99.90;;;;;;5050504;28;20058;-80
2023/10/18 12:34:05;;;;;;;13.48;12.30;;;12.30;99.90;;;;;;5056539;28;20045;-80
2023/10/18 12:36:49;;;;;;;13.30;12.10;;;12.30;99.90;;;;;;5034079;28;20190;-79
2023/10/18 12:39:20;;;;;;;12.98;11.77;;;12.40;99.90;;;;;;5047774;28;20418;-80
2023/10/18 12:41:52;;;;;;;12.48;11.25;;;12.40;99.90;;;;;;5060594;28;20524;-80
2023/10/18 12:44:18;;;;;;;12.10;10.90;;;12.40;99.90;;;;;;5046235;28;20063;-80
2023/10/18 12:46:45;;;;;;;13.35;12.15;;;12.40;99.90;;;;;;5038761;28;20063;-80
2023/10/18 12:49:11;;;;;;;12.82;11.60;;;12.30;99.90;;;;;;5052199;28;20037;-82
2023/10/18 12:51:42;;;;;;;11.90;10.90;;;12.40;99.90;;;;;;5053798;28;20120;-80
2023/10/18 12:54:10;;;;;;;12.18;10.63;;;12.50;99.90;;;;;;5055946;28;20044;-81
2023/10/18 12:56:38;;;;;;;11.75;10.55;;;12.50;99.90;;;;;;5059821;28;20085;-80
2023/10/18 13:01:42;;;;;;;11.27;10.27;;;12.80;99.90;;;;;;5054430;28;20127;-80
2023/10/18 13:04:08;;;;;;;11.82;10.73;;;13.00;99.90;;;;;;5040635;28;20037;-81
2023/10/18 13:06:43;;;;;;;10.77;9.68;;;13.20;99.90;;;;;;5049841;28;20057;-80
2023/10/18 13:09:19;;;;;;;10.50;9.48;;;13.10;99.90;;;;;;5054088;28;20109;-81
2023/10/18 13:14:31;;;;;;;10.57;9.50;;;13.20;99.90;;;;;;5061940;28;20620;-83
2023/10/18 13:16:58;;;;;;;10.50;9.60;;;13.40;99.90;;;;;;5052894;28;20087;-81
2023/10/18 13:19:25;;;;;;;11.10;10.00;;;13.40;99.90;;;;;;5050871;28;20045;-81
2023/10/18 13:21:51;;;;;;;10.82;9.70;;;13.40;99.90;;;;;;5051117;28;20053;-81
2023/10/18 13:24:17;;;;;;;10.45;9.38;;;13.40;99.90;;;;;;5034550;28;20041;-80
2023/10/18 13:26:46;;;;;;;10.23;9.30;;;13.60;99.90;;;;;;5050868;28;20127;-81
2023/10/18 13:31:49;;;;;;;9.75;8.85;;;13.80;99.90;;;;;;5031016;28;20045;-81
2023/10/18 13:34:20;;;;;;;10.98;9.88;;;13.80;99.90;;;;;;5031006;28;20048;-81
2023/10/18 13:36:47;;;;;;;10.65;9.30;;;13.80;99.90;;;;;;5020973;28;20083;-81
2023/10/18 13:39:14;;;;;;;11.15;9.95;;;13.80;99.90;;;;;;5057979;28;20402;-81
2023/10/18 13:41:41;;;;;;;11.63;10.48;;;13.60;99.90;;;;;;5040636;28;20041;-81
2023/10/18 13:44:08;;;;;;;10.93;9.77;;;13.50;99.90;;;;;;5045953;28;20044;-81
2023/10/18 13:46:36;;;;;;;11.13;10.07;;;13.20;99.90;;;;;;5058800;28;20040;-82
2023/10/18 13:49:03;;;;;;;12.70;11.40;;;13.00;99.90;;;;;;5041186;28;20475;-82
2023/10/18 13:51:34;;;;;;;11.60;10.52;;;12.70;99.90;;;;;;5059782;28;20124;-82
2023/10/18 13:54:01;;;;;;;12.52;11.45;;;12.60;99.90;;;;;;5061315;28;20032;-82
2023/10/18 13:56:26;;;;;;;12.07;10.88;;;12.50;99.90;;;;;;5051862;28;20124;-80
2023/10/18 13:58:52;;;;;;;12.02;10.88;;;12.50;99.90;;;;;;5046156;28;20112;-82
2023/10/18 14:01:18;;;;;;;11.70;10.48;;;12.40;99.90;;;;;;5056369;28;20041;-81
2023/10/18 14:03:47;;;;;;;11.55;10.45;;;12.40;99.90;;;;;;5061390;28;20110;-81